AAL1941 KLGA-KDCA
Flight info
| Callsign | AAL1941 |
|---|---|
| Flight time | 0h 35m |
| Altitude | 30000 |
| Route | BIGGY Q75 MXE CLIPR3 |
| Aircraft | B738/M-SDE2E3FGHIRWXY/LB1 |
Departure
| Time | 2026-05-07 02:29 |
|---|---|
| Airport | LaGuardia Airport (KLGA) |
Arrival
| Time | 2026-05-07 03:04 |
|---|---|
| Airport | Ronald Reagan Washington National Airport (KDCA) |
| Time | Latitude | Longitude | Altitude | Speed | Heading |
|---|---|---|---|---|---|
| 2026-05-07 02:14 | 40.77513 | -73.87154 | 19 ft | 0 kts | 326° |
| 2026-05-07 02:21 | 40.77501 | -73.87143 | 19 ft | 3 kts | 326° |
| 2026-05-07 02:21 | 40.77485 | -73.87129 | 19 ft | 3 kts | 328° |
| 2026-05-07 02:22 | 40.77468 | -73.87119 | 22 ft | 3 kts | 4° |
| 2026-05-07 02:22 | 40.77450 | -73.87126 | 20 ft | 3 kts | 31° |
| 2026-05-07 02:22 | 40.77450 | -73.87125 | 20 ft | 3 kts | 32° |
| 2026-05-07 02:22 | 40.77467 | -73.87111 | 19 ft | 3 kts | 32° |
| 2026-05-07 02:23 | 40.77477 | -73.87103 | 22 ft | 0 kts | 32° |
| 2026-05-07 02:25 | 40.77483 | -73.87098 | 19 ft | 7 kts | 32° |
| 2026-05-07 02:25 | 40.77528 | -73.87060 | 20 ft | 8 kts | 33° |
| 2026-05-07 02:25 | 40.77574 | -73.87023 | 18 ft | 8 kts | 31° |
| 2026-05-07 02:25 | 40.77677 | -73.86989 | 12 ft | 21 kts | 348° |
| 2026-05-07 02:26 | 40.77769 | -73.87125 | 13 ft | 20 kts | 301° |
| 2026-05-07 02:26 | 40.77843 | -73.87276 | 12 ft | 20 kts | 294° |
| 2026-05-07 02:26 | 40.77892 | -73.87437 | 14 ft | 19 kts | 303° |
| 2026-05-07 02:26 | 40.77954 | -73.87510 | 15 ft | 18 kts | 314° |
| 2026-05-07 02:27 | 40.78039 | -73.87689 | 14 ft | 17 kts | 305° |
| 2026-05-07 02:27 | 40.78101 | -73.87817 | 17 ft | 16 kts | 303° |
| 2026-05-07 02:27 | 40.78125 | -73.87845 | 17 ft | 0 kts | 335° |
| 2026-05-07 02:27 | 40.78159 | -73.87860 | 17 ft | 14 kts | 352° |
| 2026-05-07 02:28 | 40.78221 | -73.87820 | 21 ft | 7 kts | 88° |
| 2026-05-07 02:28 | 40.78207 | -73.87783 | 23 ft | 7 kts | 128° |
| 2026-05-07 02:28 | 40.78073 | -73.87542 | 12 ft | 76 kts | 123° |
| 2026-05-07 02:28 | 40.77625 | -73.86632 | 19 ft | 157 kts | 121° |
| 2026-05-07 02:29 | 40.76740 | -73.84732 | 849 ft | 190 kts | 130° |
| 2026-05-07 02:29 | 40.75692 | -73.83748 | 1900 ft | 186 kts | 172° |
| 2026-05-07 02:29 | 40.74341 | -73.83376 | 2485 ft | 214 kts | 174° |
| 2026-05-07 02:29 | 40.73319 | -73.83100 | 2770 ft | 228 kts | 174° |
| 2026-05-07 02:30 | 40.71739 | -73.83089 | 3459 ft | 224 kts | 206° |
| 2026-05-07 02:30 | 40.70403 | -73.84015 | 4595 ft | 211 kts | 220° |
| 2026-05-07 02:30 | 40.69397 | -73.85355 | 5663 ft | 204 kts | 233° |
| 2026-05-07 02:30 | 40.68487 | -73.86767 | 6698 ft | 201 kts | 233° |
| 2026-05-07 02:31 | 40.67816 | -73.88330 | 7591 ft | 201 kts | 255° |
| 2026-05-07 02:31 | 40.67690 | -73.90187 | 8392 ft | 213 kts | 270° |
| 2026-05-07 02:31 | 40.68171 | -73.92190 | 8799 ft | 246 kts | 292° |
| 2026-05-07 02:31 | 40.69058 | -73.94168 | 9635 ft | 254 kts | 292° |
| 2026-05-07 02:32 | 40.69968 | -73.96186 | 10459 ft | 261 kts | 292° |
| 2026-05-07 02:32 | 40.70830 | -73.98396 | 10708 ft | 281 kts | 280° |
| 2026-05-07 02:32 | 40.71003 | -74.00263 | 10862 ft | 292 kts | 265° |
| 2026-05-07 02:32 | 40.70965 | -74.01081 | 10929 ft | 298 kts | 261° |
| 2026-05-07 02:33 | 40.70431 | -74.03803 | 11121 ft | 319 kts | 250° |
| 2026-05-07 02:33 | 40.69611 | -74.06600 | 11547 ft | 332 kts | 248° |
| 2026-05-07 02:33 | 40.68733 | -74.09443 | 12240 ft | 337 kts | 248° |
| 2026-05-07 02:33 | 40.67841 | -74.12315 | 12996 ft | 340 kts | 248° |
| 2026-05-07 02:34 | 40.66957 | -74.15181 | 13674 ft | 345 kts | 248° |
| 2026-05-07 02:34 | 40.66056 | -74.18130 | 14249 ft | 350 kts | 248° |
| 2026-05-07 02:34 | 40.65148 | -74.21123 | 14874 ft | 353 kts | 248° |
| 2026-05-07 02:34 | 40.64236 | -74.24144 | 15529 ft | 357 kts | 249° |
| 2026-05-07 02:35 | 40.62819 | -74.28851 | 16507 ft | 361 kts | 249° |
| 2026-05-07 02:35 | 40.60926 | -74.35143 | 17697 ft | 369 kts | 249° |
| 2026-05-07 02:35 | 40.59977 | -74.38293 | 18288 ft | 371 kts | 249° |
| 2026-05-07 02:35 | 40.59025 | -74.41451 | 18871 ft | 371 kts | 249° |
| 2026-05-07 02:36 | 40.58076 | -74.44594 | 19496 ft | 370 kts | 250° |
| 2026-05-07 02:36 | 40.57128 | -74.47730 | 20108 ft | 369 kts | 250° |
| 2026-05-07 02:36 | 40.56179 | -74.50866 | 20698 ft | 369 kts | 250° |
| 2026-05-07 02:36 | 40.55240 | -74.53964 | 21238 ft | 369 kts | 250° |
| 2026-05-07 02:37 | 40.53841 | -74.58576 | 22020 ft | 370 kts | 250° |
| 2026-05-07 02:37 | 40.51930 | -74.64862 | 22968 ft | 372 kts | 251° |
| 2026-05-07 02:37 | 40.49998 | -74.71205 | 23753 ft | 375 kts | 251° |
| 2026-05-07 02:37 | 40.48055 | -74.77564 | 24524 ft | 376 kts | 251° |
| 2026-05-07 02:38 | 40.46405 | -74.82959 | 25087 ft | 378 kts | 251° |
| 2026-05-07 02:38 | 40.43332 | -74.92965 | 26091 ft | 381 kts | 250° |
| 2026-05-07 02:38 | 40.38178 | -75.03659 | 27919 ft | 382 kts | 239° |
| 2026-05-07 02:38 | 40.30908 | -75.14211 | 29938 ft | 381 kts | 232° |
| 2026-05-07 02:39 | 40.26934 | -75.18867 | 29884 ft | 381 kts | 232° |
| 2026-05-07 02:39 | 40.23217 | -75.23647 | 29897 ft | 374 kts | 234° |
| 2026-05-07 02:40 | 40.19646 | -75.28572 | 29891 ft | 372 kts | 235° |
| 2026-05-07 02:40 | 40.16121 | -75.33495 | 29881 ft | 371 kts | 235° |
| 2026-05-07 02:41 | 40.12584 | -75.38414 | 29893 ft | 372 kts | 235° |
| 2026-05-07 02:41 | 40.09026 | -75.43342 | 29920 ft | 374 kts | 235° |
| 2026-05-07 02:42 | 40.05468 | -75.48262 | 29900 ft | 376 kts | 235° |
| 2026-05-07 02:42 | 40.01879 | -75.53217 | 29897 ft | 376 kts | 235° |
| 2026-05-07 02:43 | 39.98284 | -75.58175 | 29868 ft | 376 kts | 234° |
| 2026-05-07 02:43 | 39.94695 | -75.63117 | 29893 ft | 376 kts | 234° |
| 2026-05-07 02:44 | 39.91166 | -75.68132 | 29893 ft | 371 kts | 240° |
| 2026-05-07 02:44 | 39.88303 | -75.73626 | 29889 ft | 369 kts | 242° |
| 2026-05-07 02:45 | 39.86882 | -75.76438 | 29207 ft | 376 kts | 242° |
| 2026-05-07 02:45 | 39.85443 | -75.79256 | 28425 ft | 372 kts | 242° |
| 2026-05-07 02:45 | 39.84008 | -75.82031 | 27788 ft | 365 kts | 242° |
| 2026-05-07 02:45 | 39.82593 | -75.84749 | 27119 ft | 360 kts | 242° |
| 2026-05-07 02:46 | 39.81196 | -75.87426 | 26469 ft | 355 kts | 242° |
| 2026-05-07 02:46 | 39.79818 | -75.90063 | 25845 ft | 350 kts | 242° |
| 2026-05-07 02:46 | 39.78449 | -75.92682 | 25226 ft | 352 kts | 242° |
| 2026-05-07 02:46 | 39.77057 | -75.95349 | 24594 ft | 361 kts | 242° |
| 2026-05-07 02:47 | 39.75654 | -75.98026 | 23942 ft | 357 kts | 241° |
| 2026-05-07 02:47 | 39.74259 | -76.00677 | 23260 ft | 354 kts | 241° |
| 2026-05-07 02:47 | 39.72886 | -76.03292 | 22329 ft | 355 kts | 241° |
| 2026-05-07 02:47 | 39.71506 | -76.05917 | 21634 ft | 351 kts | 241° |
| 2026-05-07 02:48 | 39.70136 | -76.08521 | 21006 ft | 347 kts | 240° |
| 2026-05-07 02:48 | 39.68784 | -76.11087 | 20398 ft | 345 kts | 240° |
| 2026-05-07 02:48 | 39.67433 | -76.13653 | 19731 ft | 344 kts | 240° |
| 2026-05-07 02:48 | 39.66078 | -76.16223 | 19147 ft | 346 kts | 240° |
| 2026-05-07 02:49 | 39.64710 | -76.18819 | 18533 ft | 351 kts | 239° |
| 2026-05-07 02:49 | 39.63335 | -76.21422 | 17888 ft | 349 kts | 239° |
| 2026-05-07 02:49 | 39.61968 | -76.24008 | 17252 ft | 345 kts | 239° |
| 2026-05-07 02:49 | 39.60617 | -76.26559 | 16676 ft | 341 kts | 238° |
| 2026-05-07 02:50 | 39.59268 | -76.29062 | 16102 ft | 339 kts | 235° |
| 2026-05-07 02:50 | 39.57560 | -76.31205 | 15538 ft | 345 kts | 221° |
| 2026-05-07 02:50 | 39.55589 | -76.32903 | 14983 ft | 345 kts | 218° |
| 2026-05-07 02:50 | 39.53586 | -76.34597 | 14430 ft | 343 kts | 218° |
| 2026-05-07 02:51 | 39.51602 | -76.36299 | 13877 ft | 341 kts | 218° |
| 2026-05-07 02:51 | 39.49644 | -76.37993 | 13277 ft | 337 kts | 218° |
| 2026-05-07 02:51 | 39.47707 | -76.39675 | 12695 ft | 333 kts | 218° |
| 2026-05-07 02:51 | 39.45793 | -76.41336 | 12111 ft | 329 kts | 218° |
| 2026-05-07 02:52 | 39.43246 | -76.43544 | 11814 ft | 313 kts | 218° |
| 2026-05-07 02:52 | 39.39704 | -76.46610 | 11529 ft | 302 kts | 218° |
| 2026-05-07 02:52 | 39.36061 | -76.49778 | 11388 ft | 333 kts | 218° |
| 2026-05-07 02:52 | 39.32136 | -76.53176 | 11144 ft | 340 kts | 218° |
| 2026-05-07 02:53 | 39.28335 | -76.56448 | 11097 ft | 324 kts | 218° |
| 2026-05-07 02:53 | 39.24717 | -76.59563 | 11043 ft | 299 kts | 218° |
| 2026-05-07 02:53 | 39.21383 | -76.62436 | 11050 ft | 278 kts | 218° |
| 2026-05-07 02:53 | 39.18318 | -76.65070 | 11054 ft | 251 kts | 218° |
| 2026-05-07 02:54 | 39.15689 | -76.67639 | 10952 ft | 226 kts | 227° |
| 2026-05-07 02:54 | 39.13398 | -76.70424 | 10226 ft | 233 kts | 227° |
| 2026-05-07 02:54 | 39.10990 | -76.73335 | 9518 ft | 239 kts | 226° |
| 2026-05-07 02:54 | 39.08614 | -76.76170 | 9273 ft | 229 kts | 226° |
| 2026-05-07 02:55 | 39.06281 | -76.78943 | 9038 ft | 229 kts | 226° |
| 2026-05-07 02:55 | 39.03927 | -76.81731 | 8800 ft | 231 kts | 226° |
| 2026-05-07 02:55 | 39.01537 | -76.84559 | 8596 ft | 237 kts | 226° |
| 2026-05-07 02:55 | 38.99062 | -76.87479 | 8393 ft | 245 kts | 226° |
| 2026-05-07 02:56 | 38.96492 | -76.90466 | 7876 ft | 255 kts | 223° |
| 2026-05-07 02:56 | 38.93703 | -76.93317 | 7278 ft | 256 kts | 215° |
| 2026-05-07 02:56 | 38.90305 | -76.94186 | 6676 ft | 250 kts | 187° |
| 2026-05-07 02:56 | 38.86871 | -76.94235 | 6069 ft | 246 kts | 186° |
| 2026-05-07 02:57 | 38.83503 | -76.94304 | 5468 ft | 237 kts | 186° |
| 2026-05-07 02:57 | 38.80271 | -76.94395 | 4848 ft | 229 kts | 186° |
| 2026-05-07 02:57 | 38.77147 | -76.94436 | 4234 ft | 222 kts | 181° |
| 2026-05-07 02:57 | 38.74091 | -76.94115 | 3637 ft | 218 kts | 179° |
| 2026-05-07 02:58 | 38.71100 | -76.93808 | 3102 ft | 213 kts | 179° |
| 2026-05-07 02:58 | 38.68226 | -76.93533 | 2993 ft | 202 kts | 178° |
| 2026-05-07 02:58 | 38.65380 | -76.93276 | 3038 ft | 213 kts | 179° |
| 2026-05-07 02:58 | 38.62387 | -76.92998 | 3012 ft | 214 kts | 178° |
| 2026-05-07 02:59 | 38.59730 | -76.93590 | 2950 ft | 179 kts | 230° |
| 2026-05-07 02:59 | 38.59259 | -76.96436 | 3033 ft | 168 kts | 269° |
| 2026-05-07 02:59 | 38.59323 | -76.99429 | 3032 ft | 174 kts | 278° |
| 2026-05-07 02:59 | 38.61069 | -77.01021 | 3003 ft | 192 kts | 356° |
| 2026-05-07 03:00 | 38.63115 | -77.01121 | 3046 ft | 189 kts | 351° |
| 2026-05-07 03:00 | 38.65738 | -77.01589 | 3037 ft | 191 kts | 349° |
| 2026-05-07 03:00 | 38.68330 | -77.01974 | 2978 ft | 187 kts | 351° |
| 2026-05-07 03:00 | 38.70883 | -77.02281 | 2583 ft | 195 kts | 353° |
| 2026-05-07 03:01 | 38.72209 | -77.02452 | 2309 ft | 188 kts | 353° |
| 2026-05-07 03:01 | 38.73482 | -77.02593 | 2095 ft | 179 kts | 355° |
| 2026-05-07 03:01 | 38.74693 | -77.02717 | 1866 ft | 170 kts | 355° |
| 2026-05-07 03:01 | 38.75831 | -77.02832 | 1649 ft | 163 kts | 356° |
| 2026-05-07 03:02 | 38.76938 | -77.02944 | 1432 ft | 156 kts | 356° |
| 2026-05-07 03:02 | 38.77986 | -77.03050 | 1235 ft | 146 kts | 356° |
| 2026-05-07 03:02 | 38.78955 | -77.03148 | 1074 ft | 130 kts | 355° |
| 2026-05-07 03:02 | 38.79822 | -77.03236 | 901 ft | 121 kts | 356° |
| 2026-05-07 03:03 | 38.80652 | -77.03319 | 741 ft | 119 kts | 355° |
| 2026-05-07 03:03 | 38.81508 | -77.03408 | 596 ft | 128 kts | 355° |
| 2026-05-07 03:03 | 38.82371 | -77.03497 | 466 ft | 120 kts | 356° |
| 2026-05-07 03:03 | 38.83212 | -77.03576 | 280 ft | 123 kts | 353° |
| 2026-05-07 03:04 | 38.84061 | -77.03656 | 110 ft | 121 kts | 350° |
| 2026-05-07 03:04 | 38.84861 | -77.03753 | 23 ft | 102 kts | 356° |
| 2026-05-07 03:04 | 38.85455 | -77.03810 | 25 ft | 68 kts | 354° |
| 2026-05-07 03:04 | 38.85741 | -77.03998 | 25 ft | 34 kts | 268° |
| 2026-05-07 03:05 | 38.85724 | -77.04052 | 28 ft | 0 kts | 237° |
| 2026-05-07 03:06 | 38.85724 | -77.04054 | 27 ft | 2 kts | 238° |
| 2026-05-07 03:06 | 38.85708 | -77.04094 | 25 ft | 8 kts | 244° |
| 2026-05-07 03:06 | 38.85677 | -77.04159 | 25 ft | 7 kts | 230° |
| 2026-05-07 03:07 | 38.85672 | -77.04167 | 23 ft | 0 kts | 231° |
| 2026-05-07 03:07 | 38.85670 | -77.04169 | 25 ft | 0 kts | 231° |